Time;durP1;ratioP1;P1;durP2;ratioP2;P2;SDS_P1;SDS_P2;PMS_P1;PMS_P2;Temp;Humidity;BMP_temperature;BMP_pressure;BME280_temperature;BME280_humidity;BME280_pressure;Samples;Min_cycle;Max_cycle;Signal;HPM_P1;HPM_P2
2022/11/23 00:01:16;;;;;;;64.60;22.30;;;;;;;0.74;90.43;99588.64;1693083;84;25991;-58
2022/11/23 00:03:49;;;;;;;58.45;20.90;;;;;;;0.74;90.38;99585.98;1693139;84;25494;-57
2022/11/23 00:06:20;;;;;;;56.77;20.90;;;;;;;0.72;90.36;99586.77;1690785;84;25865;-57
2022/11/23 00:08:50;;;;;;;66.40;21.73;;;;;;;0.72;90.39;99589.44;1691504;84;27913;-57
2022/11/23 00:11:19;;;;;;;71.50;23.38;;;;;;;0.70;90.34;99588.36;1690988;84;25464;-55
2022/11/23 00:13:47;;;;;;;67.22;23.98;;;;;;;0.70;90.38;99592.89;1692201;84;25818;-54
2022/11/23 00:16:21;;;;;;;59.63;21.42;;;;;;;0.69;90.49;99597.40;1690411;84;25625;-57
2022/11/23 00:18:50;;;;;;;64.92;24.30;;;;;;;0.70;90.51;99600.88;1688938;84;25809;-58
2022/11/23 00:21:19;;;;;;;62.50;23.05;;;;;;;0.70;90.56;99601.67;1688721;84;27991;-59
2022/11/23 00:23:47;;;;;;;66.35;22.42;;;;;;;0.71;90.52;99605.13;1691779;84;25626;-58
2022/11/23 00:26:17;;;;;;;63.87;21.50;;;;;;;0.69;90.49;99601.39;1689405;84;25829;-59
2022/11/23 00:28:45;;;;;;;58.45;21.40;;;;;;;0.69;90.49;99602.72;1690444;84;25657;-57
2022/11/23 00:31:15;;;;;;;63.92;23.15;;;;;;;0.68;90.43;99591.00;1691719;84;25534;-57
2022/11/23 00:33:44;;;;;;;58.78;21.77;;;;;;;0.68;90.48;99594.99;1691357;84;27399;-56
2022/11/23 00:36:14;;;;;;;45.40;15.98;;;;;;;0.68;90.59;99591.82;1693371;84;25642;-57
2022/11/23 00:38:44;;;;;;;62.40;22.17;;;;;;;0.68;90.56;99594.48;1691098;84;25903;-56
2022/11/23 00:41:15;;;;;;;66.42;22.62;;;;;;;0.67;90.58;99603.52;1694391;84;25600;-56
2022/11/23 00:43:44;;;;;;;62.60;21.07;;;;;;;0.68;90.56;99601.14;1691967;84;25861;-57
2022/11/23 00:46:24;;;;;;;70.20;24.00;;;;;;;0.66;90.50;99599.78;1690717;84;27438;-57
2022/11/23 00:48:55;;;;;;;64.50;23.60;;;;;;;0.67;90.54;99598.20;1691532;84;27165;-55
2022/11/23 00:51:26;;;;;;;73.90;25.62;;;;;;;0.67;90.51;99598.73;1691054;84;25537;-58
2022/11/23 00:53:54;;;;;;;67.60;24.90;;;;;;;0.64;90.49;99596.05;1691764;84;25872;-57
2022/11/23 00:56:21;;;;;;;70.87;24.50;;;;;;;0.63;90.48;99589.14;1692125;84;25754;-54
2022/11/23 00:58:55;;;;;;;65.78;22.65;;;;;;;0.63;90.52;99590.47;1690907;84;27593;-55
2022/11/23 01:01:27;;;;;;;67.27;24.45;;;;;;;0.61;90.52;99577.14;1694542;84;25747;-58
2022/11/23 01:03:57;;;;;;;66.45;24.60;;;;;;;0.61;90.54;99589.11;1691525;84;25494;-57
2022/11/23 01:06:29;;;;;;;70.67;23.75;;;;;;;0.59;90.56;99578.73;1692421;84;25615;-58
2022/11/23 01:09:01;;;;;;;69.17;23.52;;;;;;;0.59;90.59;99577.39;1690776;84;25425;-57
2022/11/23 01:11:30;;;;;;;70.45;24.82;;;;;;;0.58;90.60;99567.83;1690060;84;27464;-55
2022/11/23 01:13:56;;;;;;;68.42;25.15;;;;;;;0.57;90.61;99566.22;1688770;84;25852;-56
2022/11/23 01:16:28;;;;;;;65.92;24.07;;;;;;;0.57;90.65;99569.42;1689179;84;25526;-57
2022/11/23 01:19:00;;;;;;;63.65;23.10;;;;;;;0.54;90.61;99576.05;1689634;84;25620;-54
2022/11/23 01:21:30;;;;;;;70.15;23.15;;;;;;;0.53;90.68;99575.25;1695257;84;25494;-57
2022/11/23 01:23:59;;;;;;;58.70;22.80;;;;;;;0.52;90.68;99574.17;1694091;84;27926;-54
2022/11/23 01:26:26;;;;;;;59.10;20.92;;;;;;;0.52;90.70;99571.52;1691171;84;25836;-54
2022/11/23 01:28:52;;;;;;;54.00;19.35;;;;;;;0.49;90.74;99566.70;1691521;84;25404;-58
2022/11/23 01:31:23;;;;;;;64.75;23.57;;;;;;;0.48;90.78;99564.59;1681984;84;27876;-57
2022/11/23 01:34:00;;;;;;;71.00;23.52;;;;;;;0.48;90.84;99565.13;1693363;84;25583;-58
2022/11/23 01:36:34;;;;;;;63.52;21.12;;;;;;;0.48;90.97;99563.26;1690098;84;27356;-55
2022/11/23 01:39:04;;;;;;;66.53;23.20;;;;;;;0.49;91.04;99564.84;1691631;84;25776;-57
2022/11/23 01:41:37;;;;;;;61.23;21.62;;;;;;;0.47;91.04;99554.98;1691383;84;25632;-56
2022/11/23 01:44:29;;;;;;;63.05;24.30;;;;;;;0.47;91.07;99563.52;1690979;84;27752;-57
2022/11/23 01:47:00;;;;;;;72.10;23.70;;;;;;;0.48;91.09;99564.59;1690093;84;25425;-56
2022/11/23 01:49:33;;;;;;;64.53;22.62;;;;;;;0.48;91.11;99560.59;1688966;84;27432;-57
2022/11/23 01:52:07;;;;;;;62.30;21.97;;;;;;;0.48;91.09;99566.45;1686128;84;25630;-57
2022/11/23 01:54:45;;;;;;;74.77;23.40;;;;;;;0.47;91.10;99561.64;1692113;84;25453;-54
2022/11/23 01:57:17;;;;;;;68.05;23.35;;;;;;;0.47;91.15;99567.50;1692578;84;25853;-57
2022/11/23 01:59:47;;;;;;;71.35;23.30;;;;;;;0.48;91.18;99568.58;1691211;84;25567;-56
2022/11/23 02:02:17;;;;;;;65.20;21.27;;;;;;;0.48;91.22;99568.58;1687326;84;27536;-56
2022/11/23 02:04:50;;;;;;;63.38;23.30;;;;;;;0.50;91.29;99569.11;1693238;84;25555;-54
2022/11/23 02:07:20;;;;;;;62.67;22.48;;;;;;;0.51;91.26;99566.73;1692370;84;25413;-56
2022/11/23 02:09:47;;;;;;;66.67;22.85;;;;;;;0.51;91.19;99557.42;1690471;84;26384;-56
2022/11/23 02:12:15;;;;;;;60.48;21.68;;;;;;;0.52;91.20;99559.54;1690624;84;25506;-55
2022/11/23 02:14:44;;;;;;;58.38;21.52;;;;;;;0.52;91.11;99564.33;1689052;84;27332;-56
2022/11/23 02:17:12;;;;;;;59.25;20.65;;;;;;;0.51;91.05;99567.24;1691821;84;25889;-57
2022/11/23 02:19:53;;;;;;;60.28;21.12;;;;;;;0.51;91.14;99558.75;1684321;84;25404;-56
2022/11/23 02:22:34;;;;;;;57.45;20.02;;;;;;;0.52;91.15;99566.20;1692608;84;27810;-56
2022/11/23 02:25:07;;;;;;;57.83;20.88;;;;;;;0.51;91.12;99569.91;1690523;84;25487;-56
2022/11/23 02:27:35;;;;;;;66.00;21.82;;;;;;;0.50;91.07;99571.77;1691481;84;27490;-54
2022/11/23 02:30:04;;;;;;;62.85;21.17;;;;;;;0.48;91.06;99565.92;1665408;84;25921;-55
2022/11/23 02:32:33;;;;;;;61.55;21.30;;;;;;;0.45;91.00;99567.76;1689164;84;25450;-58
2022/11/23 02:34:59;;;;;;;60.87;21.87;;;;;;;0.45;91.14;99574.95;1689497;84;25668;-58
2022/11/23 02:37:26;;;;;;;55.17;20.00;;;;;;;0.44;91.21;99574.13;1690559;84;25914;-58
2022/11/23 02:39:55;;;;;;;59.55;18.70;;;;;;;0.42;91.19;99582.12;1692097;84;27297;-57
2022/11/23 02:42:23;;;;;;;50.33;18.52;;;;;;;0.40;91.17;99587.69;1689125;84;25435;-54
2022/11/23 02:45:05;;;;;;;56.90;18.87;;;;;;;0.38;91.18;99591.15;1689962;84;25838;-53
2022/11/23 02:47:32;;;;;;;48.68;18.87;;;;;;;0.36;91.24;99587.41;1691041;84;25782;-57
2022/11/23 02:49:59;;;;;;;52.98;18.75;;;;;;;0.36;91.38;99591.94;1690245;84;25464;-57
2022/11/23 02:52:26;;;;;;;48.78;18.60;;;;;;;0.34;91.34;99591.38;1692222;84;27418;-56
2022/11/23 02:54:54;;;;;;;55.48;19.07;;;;;;;0.34;91.40;99593.52;1690290;84;25490;-54
2022/11/23 02:57:21;;;;;;;47.98;16.75;;;;;;;0.34;91.45;99591.38;1690406;84;25833;-56
2022/11/23 02:59:49;;;;;;;47.45;18.80;;;;;;;0.29;91.39;99589.51;1692549;84;25694;-56
2022/11/23 03:02:15;;;;;;;46.70;16.87;;;;;;;0.31;91.49;99593.24;1689599;84;25393;-57
2022/11/23 03:04:43;;;;;;;44.33;15.00;;;;;;;0.30;91.49;99596.95;1688722;84;27506;-54
2022/11/23 03:07:11;;;;;;;44.40;16.15;;;;;;;0.27;91.54;99590.81;1690428;84;25752;-58
2022/11/23 03:09:38;;;;;;;44.50;15.35;;;;;;;0.22;91.48;99588.13;1688326;84;25633;-57
2022/11/23 03:12:06;;;;;;;44.50;15.05;;;;;;;0.18;91.75;99586.51;1694191;84;25643;-56
2022/11/23 03:14:32;;;;;;;44.77;15.80;;;;;;;0.16;91.78;99594.74;1691277;84;25778;-57
2022/11/23 03:17:00;;;;;;;37.38;15.25;;;;;;;0.15;91.84;99591.00;1691987;84;28105;-55
2022/11/23 03:19:27;;;;;;;46.35;17.30;;;;;;;0.15;91.94;99596.33;1690469;84;25460;-54
2022/11/23 03:21:55;;;;;;;47.38;15.93;;;;;;;0.15;92.13;99601.64;1690462;84;25850;-55
2022/11/23 03:24:21;;;;;;;44.45;16.57;;;;;;;0.16;92.02;99596.61;1690070;84;25819;-57
2022/11/23 03:26:49;;;;;;;44.30;16.02;;;;;;;0.15;92.09;99597.66;1691926;84;25633;-55
2022/11/23 03:29:15;;;;;;;41.33;15.98;;;;;;;0.15;92.17;99594.48;1688976;84;27341;-53
2022/11/23 03:31:41;;;;;;;45.92;15.20;;;;;;;0.17;92.31;99594.20;1693153;84;25639;-55
2022/11/23 03:34:10;;;;;;;47.27;16.12;;;;;;;0.16;92.23;99595.28;1683821;84;25416;-54
2022/11/23 03:36:36;;;;;;;48.80;16.95;;;;;;;0.17;92.24;99592.88;1694429;84;25693;-53
2022/11/23 03:39:03;;;;;;;42.60;15.80;;;;;;;0.17;92.22;99594.20;1691657;84;25856;-55
2022/11/23 03:41:29;;;;;;;39.42;15.00;;;;;;;0.18;92.29;99601.92;1692132;84;27349;-53
2022/11/23 03:43:56;;;;;;;35.00;14.15;;;;;;;0.19;92.27;99601.42;1691181;84;25608;-53
2022/11/23 03:46:24;;;;;;;36.88;15.58;;;;;;;0.16;92.19;99600.06;1690236;84;25755;-56
2022/11/23 03:48:52;;;;;;;40.92;14.20;;;;;;;0.16;92.20;99592.08;1689587;84;25673;-53
2022/11/23 03:51:18;;;;;;;39.60;14.30;;;;;;;0.16;92.12;99590.75;1690834;84;25395;-56
2022/11/23 03:53:44;;;;;;;43.30;15.93;;;;;;;0.16;92.16;99591.29;1690090;84;27958;-56
2022/11/23 03:56:10;;;;;;;39.83;14.83;;;;;;;0.15;92.16;99589.17;1691089;84;25820;-55
2022/11/23 03:58:37;;;;;;;35.45;13.13;;;;;;;0.16;92.20;99589.42;1691779;84;25486;-56
2022/11/23 04:01:04;;;;;;;34.78;13.50;;;;;;;0.16;92.21;99590.75;1691505;84;25598;-57
2022/11/23 04:03:32;;;;;;;35.65;12.53;;;;;;;0.15;92.02;99594.48;1693762;84;25383;-54
2022/11/23 04:06:00;;;;;;;17.10;7.70;;;;;;;0.12;91.83;99606.96;1696238;84;28014;-53
2022/11/23 04:08:26;;;;;;;31.65;12.23;;;;;;;0.04;91.74;99600.78;1691974;84;27249;-56
2022/11/23 04:10:57;;;;;;;28.70;12.07;;;;;;;0.05;91.83;99609.56;1689500;84;25181;-55
2022/11/23 04:13:26;;;;;;;30.65;12.63;;;;;;;0.03;91.86;99612.47;1692137;84;25639;-57
2022/11/23 04:15:52;;;;;;;31.60;11.45;;;;;;;-0.01;91.78;99618.83;1692283;84;25565;-55
2022/11/23 04:18:18;;;;;;;31.27;12.23;;;;;;;-0.02;91.80;99619.08;1691958;84;27343;-55
2022/11/23 04:20:44;;;;;;;28.50;11.10;;;;;;;-0.03;91.85;99616.17;1691924;84;31294;-56
2022/11/23 04:23:12;;;;;;;22.87;11.07;;;;;;;-0.07;91.79;99618.53;1691446;84;25851;-53
2022/11/23 04:25:38;;;;;;;29.57;10.50;;;;;;;-0.09;91.77;99613.98;1690218;84;26264;-57
2022/11/23 04:28:05;;;;;;;29.05;11.88;;;;;;;-0.13;91.72;99607.58;1691171;84;25652;-56
2022/11/23 04:30:31;;;;;;;25.55;9.58;;;;;;;-0.15;91.81;99606.22;1691142;84;27336;-56
2022/11/23 04:32:58;;;;;;;30.85;12.63;;;;;;;-0.18;91.81;99606.21;1689021;84;25732;-55
2022/11/23 04:35:26;;;;;;;28.90;12.15;;;;;;;-0.20;91.84;99609.66;1692246;84;25632;-55
2022/11/23 04:37:53;;;;;;;30.75;12.45;;;;;;;-0.21;91.89;99612.03;1690040;84;25837;-57
2022/11/23 04:40:19;;;;;;;27.00;10.93;;;;;;;-0.22;91.98;99611.23;1693489;84;25450;-56
2022/11/23 04:42:45;;;;;;;29.57;12.53;;;;;;;-0.23;92.05;99602.98;1688874;84;28127;-53
2022/11/23 04:45:13;;;;;;;28.25;11.75;;;;;;;-0.23;92.11;99595.54;1692830;84;25583;-54
2022/11/23 04:47:41;;;;;;;28.67;11.18;;;;;;;-0.23;92.17;99598.20;1692092;84;25908;-55
2022/11/23 04:50:09;;;;;;;25.32;11.43;;;;;;;-0.23;92.15;99600.86;1689351;84;27883;-56
2022/11/23 04:52:36;;;;;;;31.23;12.10;;;;;;;-0.25;92.18;99598.98;1689278;84;25496;-53
2022/11/23 04:55:05;;;;;;;32.15;12.15;;;;;;;-0.23;92.31;99608.83;1695575;84;27378;-53
2022/11/23 04:57:32;;;;;;;31.30;12.28;;;;;;;-0.22;92.39;99605.13;1693719;84;33027;-53
2022/11/23 04:59:59;;;;;;;30.82;13.00;;;;;;;-0.18;92.45;99602.77;1692376;84;25400;-56
2022/11/23 05:02:25;;;;;;;34.43;12.82;;;;;;;-0.17;92.47;99601.18;1693447;84;25810;-54
2022/11/23 05:04:52;;;;;;;34.35;13.72;;;;;;;-0.14;92.49;99597.20;1688374;84;25818;-54
2022/11/23 05:07:19;;;;;;;34.75;14.60;;;;;;;-0.13;92.43;99596.16;1691344;84;27368;-52
2022/11/23 05:09:45;;;;;;;28.75;12.68;;;;;;;-0.13;92.37;99597.48;1693907;84;25620;-54
2022/11/23 05:12:12;;;;;;;32.60;13.68;;;;;;;-0.13;92.30;99598.81;1690212;84;25911;-53
2022/11/23 05:14:38;;;;;;;32.03;12.90;;;;;;;-0.14;92.17;99604.64;1691064;84;26332;-56
2022/11/23 05:17:05;;;;;;;31.12;12.43;;;;;;;-0.15;92.23;99608.88;1691237;84;25565;-57
2022/11/23 05:19:32;;;;;;;29.63;11.45;;;;;;;-0.16;92.16;99600.11;1689003;84;27397;-53
2022/11/23 05:21:58;;;;;;;32.40;12.93;;;;;;;-0.17;92.09;99599.86;1691827;84;25905;-53
2022/11/23 05:24:24;;;;;;;25.48;11.68;;;;;;;-0.20;91.96;99597.70;1695038;84;25799;-53
2022/11/23 05:26:50;;;;;;;30.45;12.15;;;;;;;-0.24;91.81;99592.09;1691325;84;25667;-52
2022/11/23 05:29:16;;;;;;;28.02;11.78;;;;;;;-0.26;91.92;99598.16;1692657;84;25456;-56
2022/11/23 05:31:43;;;;;;;24.87;11.33;;;;;;;-0.26;91.94;99597.37;1692437;84;27235;-53
2022/11/23 05:34:09;;;;;;;28.30;11.27;;;;;;;-0.28;92.00;99601.61;1694248;84;31197;-54
2022/11/23 05:36:35;;;;;;;33.15;14.00;;;;;;;-0.27;92.07;99604.55;1691002;84;25462;-53
2022/11/23 05:39:02;;;;;;;32.95;13.08;;;;;;;-0.27;92.07;99602.44;1688776;84;25783;-54
2022/11/23 05:41:28;;;;;;;37.60;14.78;;;;;;;-0.27;92.10;99598.45;1688250;84;25903;-56
2022/11/23 05:43:54;;;;;;;35.75;13.80;;;;;;;-0.26;92.17;99608.80;1663460;84;28037;-56
2022/11/23 05:46:20;;;;;;;32.70;13.62;;;;;;;-0.26;92.27;99602.16;1689598;84;25427;-53
2022/11/23 05:48:46;;;;;;;38.17;13.22;;;;;;;-0.23;92.31;99599.53;1698275;84;25540;-52
2022/11/23 05:51:13;;;;;;;31.60;12.55;;;;;;;-0.25;92.21;99605.09;1690623;84;27895;-54
2022/11/23 05:53:39;;;;;;;32.67;13.15;;;;;;;-0.23;92.15;99609.63;1689277;84;25466;-54
2022/11/23 05:56:07;;;;;;;37.93;14.78;;;;;;;-0.25;91.98;99606.42;1688891;84;27400;-56
2022/11/23 05:58:33;;;;;;;28.42;12.95;;;;;;;-0.24;92.12;99614.69;1689835;84;25583;-57
2022/11/23 06:01:01;;;;;;;39.38;13.65;;;;;;;-0.24;91.98;99612.53;1691372;84;25476;-53
2022/11/23 06:03:28;;;;;;;31.97;13.58;;;;;;;-0.26;91.95;99610.66;1689367;84;25668;-55
2022/11/23 06:05:55;;;;;;;27.07;12.55;;;;;;;-0.25;92.02;99616.27;1692324;84;25404;-54
2022/11/23 06:08:22;;;;;;;23.20;10.58;;;;;;;-0.27;91.83;99611.20;1690545;84;28409;-56
2022/11/23 06:10:48;;;;;;;24.72;10.90;;;;;;;-0.31;91.66;99611.95;1688103;84;25656;-56
2022/11/23 06:13:15;;;;;;;30.82;13.05;;;;;;;-0.36;91.57;99610.58;1694818;84;25526;-57
2022/11/23 06:15:43;;;;;;;32.58;14.03;;;;;;;-0.41;91.62;99616.14;1690894;84;25678;-57
2022/11/23 06:18:09;;;;;;;27.87;13.60;;;;;;;-0.44;91.62;99622.48;1693727;84;25984;-56
2022/11/23 06:20:36;;;;;;;35.17;15.83;;;;;;;-0.45;91.77;99619.55;1693030;84;27423;-55
2022/11/23 06:23:04;;;;;;;28.50;13.32;;;;;;;-0.46;91.94;99621.41;1690267;84;25454;-53
2022/11/23 06:25:30;;;;;;;27.80;12.43;;;;;;;-0.46;91.97;99625.90;1691159;84;25837;-53
2022/11/23 06:27:59;;;;;;;29.65;13.58;;;;;;;-0.46;92.07;99624.06;1688554;84;25863;-57
2022/11/23 06:30:29;;;;;;;36.50;12.82;;;;;;;-0.46;92.02;99621.41;1691706;84;25569;-57
2022/11/23 06:32:59;;;;;;;28.12;11.43;;;;;;;-0.46;91.98;99630.70;1694642;84;27320;-55
2022/11/23 06:35:25;;;;;;;29.75;11.18;;;;;;;-0.46;91.97;99625.90;1690743;84;25780;-50
2022/11/23 06:37:53;;;;;;;27.85;11.93;;;;;;;-0.48;91.88;99621.38;1691373;84;25540;-57
2022/11/23 06:40:21;;;;;;;30.00;12.65;;;;;;;-0.47;91.89;99628.30;1693289;84;25924;-53
2022/11/23 06:42:47;;;;;;;26.73;12.13;;;;;;;-0.51;91.75;99625.34;1690400;84;25436;-57
2022/11/23 06:45:14;;;;;;;27.60;11.65;;;;;;;-0.52;91.80;99634.89;1691285;84;27345;-58
2022/11/23 06:47:40;;;;;;;28.67;12.98;;;;;;;-0.55;91.72;99632.73;1689713;84;25778;-54
2022/11/23 06:50:08;;;;;;;46.80;13.28;;;;;;;-0.55;91.92;99634.06;1691988;84;25793;-56
2022/11/23 06:52:34;;;;;;;30.05;12.53;;;;;;;-0.54;92.02;99648.42;1691351;84;26244;-57
2022/11/23 06:55:00;;;;;;;29.30;11.93;;;;;;;-0.55;91.95;99639.38;1687904;84;25437;-57
2022/11/23 06:57:27;;;;;;;28.38;12.10;;;;;;;-0.55;92.00;99640.70;1690208;84;29500;-58
2022/11/23 06:59:53;;;;;;;28.92;11.30;;;;;;;-0.55;91.96;99647.34;1692057;84;27204;-55
2022/11/23 07:02:20;;;;;;;33.80;12.78;;;;;;;-0.56;91.89;99646.55;1694758;84;25435;-55
2022/11/23 07:04:51;;;;;;;29.20;12.07;;;;;;;-0.58;91.89;99648.13;1688708;84;25925;-56
2022/11/23 07:07:19;;;;;;;30.02;12.90;;;;;;;-0.55;92.05;99656.64;1690150;84;25530;-58
2022/11/23 07:09:45;;;;;;;30.85;12.60;;;;;;;-0.57;92.03;99660.34;1689218;84;27979;-58
2022/11/23 07:12:13;;;;;;;26.27;12.73;;;;;;;-0.57;91.96;99663.53;1688573;84;25446;-58
2022/11/23 07:14:39;;;;;;;26.90;11.08;;;;;;;-0.59;91.89;99659.80;1691091;84;25852;-60
2022/11/23 07:17:05;;;;;;;29.05;12.70;;;;;;;-0.59;92.11;99657.14;1663965;84;25672;-58
2022/11/23 07:19:32;;;;;;;29.37;12.93;;;;;;;-0.59;91.99;99666.97;1689712;84;25475;-58
2022/11/23 07:21:58;;;;;;;25.72;11.95;;;;;;;-0.57;92.02;99668.31;1693642;84;27434;-57
2022/11/23 07:24:24;;;;;;;28.47;12.93;;;;;;;-0.59;91.79;99668.30;1691338;84;25823;-57
2022/11/23 07:26:50;;;;;;;25.30;11.68;;;;;;;-0.62;91.67;99670.91;1693059;84;25481;-57
2022/11/23 07:29:16;;;;;;;27.27;13.25;;;;;;;-0.66;91.55;99671.16;1689162;84;25663;-61
2022/11/23 07:31:42;;;;;;;29.35;11.78;;;;;;;-0.68;91.63;99669.28;1693405;84;25572;-58
2022/11/23 07:34:09;;;;;;;26.97;12.15;;;;;;;-0.71;91.57;99676.95;1692351;84;27950;-58
2022/11/23 07:36:38;;;;;;;28.07;12.65;;;;;;;-0.70;91.65;99669.23;1689727;84;25870;-58
2022/11/23 07:39:06;;;;;;;26.77;11.60;;;;;;;-0.73;91.56;99670.55;1692341;84;25669;-57
2022/11/23 07:41:32;;;;;;;30.48;13.20;;;;;;;-0.76;91.59;99667.85;1691473;84;25780;-58
2022/11/23 07:44:00;;;;;;;29.07;13.15;;;;;;;-0.74;91.79;99660.97;1691891;84;25410;-60
2022/11/23 07:46:26;;;;;;;26.33;12.15;;;;;;;-0.74;91.85;99662.83;1697146;84;29493;-62
2022/11/23 07:48:53;;;;;;;31.80;13.40;;;;;;;-0.73;91.90;99664.42;1691897;84;25626;-59
2022/11/23 07:51:19;;;;;;;29.80;12.80;;;;;;;-0.73;91.86;99671.88;1688407;84;25437;-59
2022/11/23 07:53:46;;;;;;;28.10;13.45;;;;;;;-0.74;91.71;99669.47;1689129;84;27827;-60
2022/11/23 07:56:12;;;;;;;32.95;13.20;;;;;;;-0.76;91.71;99662.55;1691769;84;25432;-58
2022/11/23 07:58:40;;;;;;;27.58;13.55;;;;;;;-0.78;91.69;99666.52;1692041;84;27362;-58
2022/11/23 08:01:06;;;;;;;33.40;14.50;;;;;;;-0.74;92.02;99670.27;1679388;84;26045;-58
2022/11/23 08:03:32;;;;;;;29.20;14.40;;;;;;;-0.73;92.11;99665.74;1689358;84;25466;-59
2022/11/23 08:05:59;;;;;;;34.88;14.43;;;;;;;-0.73;91.94;99666.57;1691730;84;25613;-57
2022/11/23 08:08:26;;;;;;;40.33;16.95;;;;;;;-0.72;92.01;99660.19;1689055;84;25872;-58
2022/11/23 08:10:52;;;;;;;32.53;14.85;;;;;;;-0.71;92.19;99661.01;1690317;84;27689;-58
2022/11/23 08:13:20;;;;;;;35.05;15.10;;;;;;;-0.68;92.15;99660.48;1688408;84;25502;-57
2022/11/23 08:15:46;;;;;;;34.08;15.60;;;;;;;-0.69;92.17;99663.67;1691341;84;25563;-58
2022/11/23 08:18:15;;;;;;;37.55;15.10;;;;;;;-0.66;92.15;99677.80;1691889;84;25742;-59
2022/11/23 08:20:41;;;;;;;34.25;15.15;;;;;;;-0.67;91.98;99678.04;1693935;84;25483;-58
2022/11/23 08:23:08;;;;;;;40.78;15.75;;;;;;;-0.65;92.03;99682.57;1690628;84;27440;-57
2022/11/23 08:25:34;;;;;;;33.48;14.07;;;;;;;-0.63;92.31;99672.49;1694291;84;25901;-60
2022/11/23 08:28:04;;;;;;;33.85;14.93;;;;;;;-0.63;92.03;99675.97;1689670;84;25933;-59
2022/11/23 08:30:33;;;;;;;31.82;14.47;;;;;;;-0.64;91.91;99674.89;1689293;84;25392;-59
2022/11/23 08:33:05;;;;;;;29.60;13.78;;;;;;;-0.66;91.72;99683.11;1690700;84;25846;-56
2022/11/23 08:35:38;;;;;;;31.57;14.45;;;;;;;-0.66;91.63;99679.13;1689748;84;28333;-58
2022/11/23 08:38:07;;;;;;;31.57;14.93;;;;;;;-0.66;91.72;99675.67;1693447;84;25854;-59
2022/11/23 08:40:37;;;;;;;30.97;15.38;;;;;;;-0.68;91.69;99681.23;1686884;84;25539;-60
2022/11/23 08:43:05;;;;;;;;;;;;;;;-0.68;91.63;99680.41;1694958;84;25664;-58
2022/11/23 08:45:31;;;;;;;30.68;13.43;;;;;;;-0.69;91.76;99681.48;1688676;84;25986;-58
2022/11/23 08:48:04;;;;;;;38.05;16.02;;;;;;;-0.69;91.80;99686.25;1689248;84;27675;-59
2022/11/23 08:50:34;;;;;;;33.30;16.10;;;;;;;-0.71;91.82;99677.73;1689610;84;25627;-61
2022/11/23 08:53:01;;;;;;;36.58;16.90;;;;;;;-0.70;91.80;99680.66;1694609;84;25418;-62
2022/11/23 08:55:29;;;;;;;41.75;17.67;;;;;;;-0.70;91.95;99675.88;1692188;84;26310;-62
2022/11/23 08:57:58;;;;;;;32.80;15.80;;;;;;;-0.70;92.03;99676.67;1691514;84;25966;-58
2022/11/23 09:00:27;;;;;;;37.53;15.50;;;;;;;-0.68;92.11;99675.09;1691202;84;27384;-60
2022/11/23 09:02:53;;;;;;;34.55;16.42;;;;;;;-0.65;92.31;99676.72;1691067;84;25590;-60
2022/11/23 09:05:20;;;;;;;35.65;15.63;;;;;;;-0.61;92.24;99680.50;1690241;84;25999;-60
2022/11/23 09:07:48;;;;;;;33.18;15.48;;;;;;;-0.63;92.08;99675.15;1692146;84;25697;-62
2022/11/23 09:10:16;;;;;;;36.50;16.37;;;;;;;-0.59;92.30;99679.72;1692718;84;25610;-63
2022/11/23 09:12:43;;;;;;;38.50;17.67;;;;;;;-0.55;92.49;99677.36;1691203;84;28056;-61
2022/11/23 09:15:11;;;;;;;37.55;17.05;;;;;;;-0.51;92.46;99674.50;1689504;84;25825;-60
2022/11/23 09:17:40;;;;;;;32.40;14.47;;;;;;;-0.47;92.41;99682.23;1693001;84;25372;-60
2022/11/23 09:20:20;;;;;;;26.30;11.22;;;;;;;-0.44;92.02;99683.60;1691477;84;25992;-61
2022/11/23 09:22:53;;;;;;;;;;;;;;;-0.43;91.97;99681.99;1693051;84;25682;-59
2022/11/23 09:25:24;;;;;;;29.85;14.28;;;;;;;-0.45;91.68;99684.11;1686028;84;27374;-59
2022/11/23 09:27:58;;;;;;;32.93;15.95;;;;;;;-0.43;91.76;99676.68;1689924;84;34995;-55
2022/11/23 09:30:28;;;;;;;36.63;15.93;;;;;;;-0.41;91.81;99672.45;1692608;84;25414;-64
2022/11/23 09:33:01;;;;;;;37.08;16.07;;;;;;;-0.38;91.80;99667.43;1692560;84;25919;-57
2022/11/23 09:35:28;;;;;;;35.55;16.32;;;;;;;-0.37;91.74;99661.61;1692215;84;25524;-55
2022/11/23 09:38:01;;;;;;;38.50;16.45;;;;;;;-0.29;92.04;99660.33;1695756;84;27867;-57
2022/11/23 09:40:43;;;;;;;38.92;16.77;;;;;;;-0.27;92.03;99658.25;1691724;84;27165;-65
2022/11/23 09:43:40;;;;;;;38.60;16.93;;;;;;;-0.21;91.94;99662.54;1687010;84;25511;-64
2022/11/23 09:46:55;;;;;;;61.10;22.87;;;;;;;-0.15;91.84;99668.19;1688902;84;25670;-65
2022/11/23 09:49:28;;;;;;;40.80;16.65;;;;;;;-0.09;91.76;99669.81;1691796;84;25608;-64
2022/11/23 09:51:57;;;;;;;33.70;13.58;;;;;;;-0.08;91.22;99659.46;1692020;84;28045;-64
2022/11/23 09:54:34;;;;;;;28.55;12.82;;;;;;;-0.09;91.09;99651.73;1687509;84;25534;-66
2022/11/23 09:57:04;;;;;;;29.25;12.55;;;;;;;-0.06;90.93;99652.56;1692439;84;25739;-64
2022/11/23 09:59:50;;;;;;;26.15;13.03;;;;;;;-0.09;90.59;99650.41;1691327;84;25639;-65
2022/11/23 10:02:28;;;;;;;28.55;12.35;;;;;;;-0.08;90.80;99649.36;1689887;84;25459;-66
2022/11/23 10:05:03;;;;;;;27.77;12.43;;;;;;;-0.07;90.73;99644.30;1693801;83;28683;-65
2022/11/23 10:07:43;;;;;;;27.17;12.18;;;;;;;-0.08;90.33;99646.70;1692088;84;26524;-65
2022/11/23 10:10:33;;;;;;;28.25;13.28;;;;;;;-0.07;90.45;99644.30;1690669;84;25628;-65
2022/11/23 10:13:29;;;;;;;33.10;13.93;;;;;;;-0.08;90.30;99638.19;1690436;84;25837;-65
2022/11/23 10:16:30;;;;;;;29.45;13.05;;;;;;;-0.05;90.90;99635.54;1693201;84;25583;-65
2022/11/23 10:19:05;;;;;;;27.98;13.80;;;;;;;-0.01;90.71;99641.43;1691450;84;27351;-65
2022/11/23 10:21:43;;;;;;;35.60;14.58;;;;;;;0.01;90.59;99649.16;1689887;84;25588;-65
2022/11/23 10:24:35;;;;;;;30.10;15.08;;;;;;;0.00;90.49;99643.58;1687527;84;25882;-65
2022/11/23 10:27:06;;;;;;;34.48;15.68;;;;;;;0.02;90.43;99649.44;1691039;84;26286;-65
2022/11/23 10:29:44;;;;;;;34.23;15.75;;;;;;;0.03;90.22;99655.02;1689247;84;25905;-65
2022/11/23 10:32:33;;;;;;;36.15;15.10;;;;;;;0.04;90.08;99662.48;1692114;84;28181;-66
2022/11/23 10:35:15;;;;;;;29.95;12.68;;;;;;;0.04;90.07;99654.51;1688013;84;26063;-66
2022/11/23 10:37:44;;;;;;;27.65;13.08;;;;;;;0.02;89.75;99658.75;1690305;84;25568;-66
2022/11/23 10:40:22;;;;;;;24.18;11.70;;;;;;;-0.02;89.49;99658.97;1692796;84;26143;-64
2022/11/23 10:42:56;;;;;;;26.55;11.97;;;;;;;-0.06;89.60;99649.37;1690542;84;25866;-65
2022/11/23 10:45:30;;;;;;;23.87;11.70;;;;;;;-0.06;89.58;99653.36;1686893;84;27768;-65
2022/11/23 10:48:00;;;;;;;25.08;12.10;;;;;;;-0.08;89.50;99641.39;1692541;84;25645;-65
2022/11/23 10:50:39;;;;;;;23.38;11.10;;;;;;;-0.09;89.54;99639.77;1691514;84;25862;-64
2022/11/23 10:53:27;;;;;;;27.00;12.23;;;;;;;-0.07;89.68;99644.30;1685066;84;26167;-64
2022/11/23 10:56:07;;;;;;;25.92;13.95;;;;;;;-0.05;89.95;99638.20;1694685;84;25613;-64
2022/11/23 10:58:43;;;;;;;36.45;16.35;;;;;;;-0.01;90.27;99640.10;1691395;84;28062;-65
2022/11/23 11:01:23;;;;;;;42.98;18.52;;;;;;;0.02;90.36;99628.17;1686565;84;25737;-65
2022/11/23 11:04:02;;;;;;;44.23;18.70;;;;;;;0.06;90.21;99620.48;1691356;84;25615;-65
2022/11/23 11:06:34;;;;;;;38.35;18.57;;;;;;;0.07;90.10;99612.25;1687863;84;25827;-65
2022/11/23 11:09:09;;;;;;;42.00;18.73;;;;;;;0.13;90.35;99623.17;1692367;84;25539;-64
2022/11/23 11:11:41;;;;;;;40.78;17.92;;;;;;;0.17;90.34;99618.14;1682138;84;28109;-64
2022/11/23 11:14:22;;;;;;;37.33;16.25;;;;;;;0.20;90.40;99607.00;1688008;84;25701;-64
2022/11/23 11:16:57;;;;;;;36.45;15.88;;;;;;;0.20;89.88;99606.20;1696277;84;25676;-64
2022/11/23 11:19:35;;;;;;;33.35;16.67;;;;;;;0.23;89.96;99612.34;1687743;84;26016;-64
2022/11/23 11:22:34;;;;;;;36.20;15.90;;;;;;;0.21;89.56;99617.12;1690568;84;25385;-65
2022/11/23 11:25:09;;;;;;;37.17;16.10;;;;;;;0.18;89.28;99613.90;1687234;84;27345;-64
2022/11/23 11:27:37;;;;;;;41.45;16.07;;;;;;;0.15;88.93;99617.60;1686215;84;25924;-64
2022/11/23 11:30:14;;;;;;;40.48;17.05;;;;;;;0.11;88.89;99618.64;1685552;84;25453;-65
2022/11/23 11:33:16;;;;;;;37.50;16.65;;;;;;;0.10;89.09;99618.39;1663254;84;25541;-65
2022/11/23 11:35:51;;;;;;;37.30;16.90;;;;;;;0.10;89.18;99617.57;1690460;84;25550;-64